This is the latest recevied weather packets stored in our database for station/object KI5BDI. If no packets are shown the sender has not sent any weather packets the latest 10 day(s).
| Time | Temp. | Humidity | Pressure | Rain* | Wind** | Luminosity | Snow |
|---|---|---|---|---|---|---|---|
| 1777298718 | 25° C | 90% | 1008.8 hPa | 0 mm | - | 297 W/m² | - |
| 1777293319 | 23.89° C | 91% | 1008.5 hPa | 0 mm | - | 14 W/m² | - |
| 1777290320 | 23.89° C | 91% | 1007.1 hPa | 0 mm | - | 2 W/m² | - |
| 1777288522 | 23.89° C | 91% | 1006.9 hPa | 0 mm | - | 0 W/m² | - |
| 1777287921 | 23.89° C | 91% | 1006.5 hPa | 0 mm | - | 0 W/m² | - |
| 1777283123 | 23.89° C | 91% | 1006.4 hPa | 0 mm | - | 0 W/m² | - |
| 1777277119 | 23.89° C | 92% | 1006.1 hPa | 0 mm | - | 0 W/m² | - |
| 1777271718 | 23.89° C | 94% | 1006.4 hPa | 0 mm | - | 0 W/m² | - |
| 1777263920 | 24.44° C | 91% | 1006.6 hPa | 0 mm | - | 0 W/m² | - |
| 1777263320 | 24.44° C | 91% | 1006.7 hPa | 0 mm | - | 0 W/m² | - |
| 1777260322 | 24.44° C | 91% | 1006.6 hPa | 0 mm | - | 0 W/m² | - |
| 1777257321 | 24.44° C | 88% | 1006.6 hPa | 0 mm | - | 0 W/m² | - |
| 1777256741 | 25° C | 87% | 1006.5 hPa | 0 mm | - | 0 W/m² | - |
| 1777253720 | 26.11° C | 84% | 1006.2 hPa | 0 mm | - | 0 W/m² | - |
| 1777252538 | 26.11° C | 83% | 1006 hPa | 0 mm | - | 1 W/m² | - |
| 1777245321 | 28.89° C | 74% | 1005.8 hPa | 0 mm | - | 149 W/m² | - |
| 1777242920 | 30° C | 71% | 1005.9 hPa | 0 mm | - | 287 W/m² | - |
| 1777240518 | 29.44° C | 73% | 1006.1 hPa | 0 mm | - | 585 W/m² | - |
| 1777237518 | 29.44° C | 73% | 1006.5 hPa | 0 mm | - | 532 W/m² | - |
| 1777233919 | 28.33° C | 76% | 1007.1 hPa | 0 mm | - | 591 W/m² | - |
| 1777229117 | 28.33° C | 78% | 1007.7 hPa | 0 mm | - | 837 W/m² | - |
| 1777226118 | 26.67° C | 81% | 1008.5 hPa | 0.25 mm | - | 491 W/m² | - |
| 1777225518 | 26.67° C | 82% | 1008.7 hPa | 0.25 mm | - | 416 W/m² | - |
| 1777224319 | 26.11° C | 83% | 1008.9 hPa | 0.25 mm | - | 432 W/m² | - |
| 1777221319 | 26.11° C | 84% | 1009.1 hPa | 0 mm | - | 799 W/m² | - |
* Rain latest hour (hover to see other rain measurements)
** Current wind speed in m/s (hover to see current wind gust speed)